sensor_id;sensor_type;location;lat;lon;timestamp;P1;durP1;ratioP1;P2;durP2;ratioP2
13731;SDS011;6937;56.096;12.664;2023-03-01T00:01:48;778.80;;;69.83;;
13731;SDS011;6937;56.096;12.664;2023-03-01T00:04:13;385.75;;;43.10;;
13731;SDS011;6937;56.096;12.664;2023-03-01T00:06:39;30.85;;;19.30;;
13731;SDS011;6937;56.096;12.664;2023-03-01T00:09:05;65.50;;;21.35;;
13731;SDS011;6937;56.096;12.664;2023-03-01T00:11:31;104.38;;;28.70;;
13731;SDS011;6937;56.096;12.664;2023-03-01T00:13:58;49.83;;;25.77;;
13731;SDS011;6937;56.096;12.664;2023-03-01T00:16:27;145.75;;;23.90;;
13731;SDS011;6937;56.096;12.664;2023-03-01T00:18:55;134.57;;;24.70;;
13731;SDS011;6937;56.096;12.664;2023-03-01T00:21:21;50.95;;;31.13;;
13731;SDS011;6937;56.096;12.664;2023-03-01T00:23:47;96.93;;;41.80;;
13731;SDS011;6937;56.096;12.664;2023-03-01T00:26:16;817.17;;;64.13;;
13731;SDS011;6937;56.096;12.664;2023-03-01T00:28:43;526.85;;;46.13;;
13731;SDS011;6937;56.096;12.664;2023-03-01T00:31:10;597.13;;;62.83;;
13731;SDS011;6937;56.096;12.664;2023-03-01T00:33:38;598.88;;;55.00;;
13731;SDS011;6937;56.096;12.664;2023-03-01T00:36:03;547.47;;;53.42;;
13731;SDS011;6937;56.096;12.664;2023-03-01T00:38:29;652.10;;;61.35;;
13731;SDS011;6937;56.096;12.664;2023-03-01T00:40:55;769.38;;;65.93;;
13731;SDS011;6937;56.096;12.664;2023-03-01T00:43:20;701.22;;;62.53;;
13731;SDS011;6937;56.096;12.664;2023-03-01T00:45:46;943.90;;;78.35;;
13731;SDS011;6937;56.096;12.664;2023-03-01T00:48:11;883.03;;;79.32;;
13731;SDS011;6937;56.096;12.664;2023-03-01T00:50:37;177.52;;;26.45;;
13731;SDS011;6937;56.096;12.664;2023-03-01T00:53:02;661.00;;;52.30;;
13731;SDS011;6937;56.096;12.664;2023-03-01T00:55:28;318.58;;;38.42;;
13731;SDS011;6937;56.096;12.664;2023-03-01T00:57:53;758.38;;;67.70;;
13731;SDS011;6937;56.096;12.664;2023-03-01T01:00:19;745.70;;;62.83;;
13731;SDS011;6937;56.096;12.664;2023-03-01T01:02:44;394.98;;;45.00;;
13731;SDS011;6937;56.096;12.664;2023-03-01T01:05:10;528.22;;;53.13;;
13731;SDS011;6937;56.096;12.664;2023-03-01T01:07:36;89.15;;;26.52;;
13731;SDS011;6937;56.096;12.664;2023-03-01T01:10:02;40.07;;;25.13;;
13731;SDS011;6937;56.096;12.664;2023-03-01T01:12:28;62.60;;;26.85;;
13731;SDS011;6937;56.096;12.664;2023-03-01T01:14:53;138.90;;;34.40;;
13731;SDS011;6937;56.096;12.664;2023-03-01T01:17:19;475.75;;;58.10;;
13731;SDS011;6937;56.096;12.664;2023-03-01T01:19:44;186.30;;;34.53;;
13731;SDS011;6937;56.096;12.664;2023-03-01T01:22:10;236.93;;;34.30;;
13731;SDS011;6937;56.096;12.664;2023-03-01T01:24:35;142.35;;;35.35;;
13731;SDS011;6937;56.096;12.664;2023-03-01T01:27:01;689.85;;;64.07;;
13731;SDS011;6937;56.096;12.664;2023-03-01T01:29:26;65.43;;;26.17;;
13731;SDS011;6937;56.096;12.664;2023-03-01T01:31:51;321.92;;;40.97;;
13731;SDS011;6937;56.096;12.664;2023-03-01T01:34:18;436.40;;;48.35;;
13731;SDS011;6937;56.096;12.664;2023-03-01T01:36:47;391.83;;;39.30;;
13731;SDS011;6937;56.096;12.664;2023-03-01T01:39:13;183.77;;;32.50;;
13731;SDS011;6937;56.096;12.664;2023-03-01T01:41:40;92.78;;;26.23;;
13731;SDS011;6937;56.096;12.664;2023-03-01T01:46:57;212.77;;;41.42;;
13731;SDS011;6937;56.096;12.664;2023-03-01T01:51:54;230.95;;;29.25;;
13731;SDS011;6937;56.096;12.664;2023-03-01T01:54:27;188.18;;;27.58;;
13731;SDS011;6937;56.096;12.664;2023-03-01T01:57:00;82.60;;;23.93;;
13731;SDS011;6937;56.096;12.664;2023-03-01T01:59:28;327.70;;;31.60;;
13731;SDS011;6937;56.096;12.664;2023-03-01T02:01:56;35.83;;;19.10;;
13731;SDS011;6937;56.096;12.664;2023-03-01T02:04:25;81.47;;;21.95;;
13731;SDS011;6937;56.096;12.664;2023-03-01T02:06:56;48.10;;;21.33;;
13731;SDS011;6937;56.096;12.664;2023-03-01T02:09:26;51.30;;;21.08;;
13731;SDS011;6937;56.096;12.664;2023-03-01T02:11:52;143.05;;;24.63;;
13731;SDS011;6937;56.096;12.664;2023-03-01T02:14:18;45.30;;;20.37;;
13731;SDS011;6937;56.096;12.664;2023-03-01T02:16:44;36.30;;;21.85;;
13731;SDS011;6937;56.096;12.664;2023-03-01T02:19:11;71.32;;;25.05;;
13731;SDS011;6937;56.096;12.664;2023-03-01T02:21:59;61.58;;;22.92;;
13731;SDS011;6937;56.096;12.664;2023-03-01T02:27:10;59.17;;;22.05;;
13731;SDS011;6937;56.096;12.664;2023-03-01T02:29:36;143.77;;;19.27;;
13731;SDS011;6937;56.096;12.664;2023-03-01T02:32:02;46.92;;;16.15;;
13731;SDS011;6937;56.096;12.664;2023-03-01T02:34:30;53.67;;;20.70;;
13731;SDS011;6937;56.096;12.664;2023-03-01T02:39:26;108.93;;;26.40;;
13731;SDS011;6937;56.096;12.664;2023-03-01T02:41:56;51.45;;;22.00;;
13731;SDS011;6937;56.096;12.664;2023-03-01T02:44:22;49.50;;;15.93;;
13731;SDS011;6937;56.096;12.664;2023-03-01T02:46:52;48.30;;;15.32;;
13731;SDS011;6937;56.096;12.664;2023-03-01T02:49:25;66.60;;;19.80;;
13731;SDS011;6937;56.096;12.664;2023-03-01T02:52:06;113.72;;;20.00;;
13731;SDS011;6937;56.096;12.664;2023-03-01T02:54:42;52.30;;;18.40;;
13731;SDS011;6937;56.096;12.664;2023-03-01T02:57:23;33.13;;;16.60;;
13731;SDS011;6937;56.096;12.664;2023-03-01T02:59:49;69.03;;;17.45;;
13731;SDS011;6937;56.096;12.664;2023-03-01T03:05:01;150.07;;;26.23;;
13731;SDS011;6937;56.096;12.664;2023-03-01T03:07:36;187.40;;;28.73;;
13731;SDS011;6937;56.096;12.664;2023-03-01T03:10:04;77.82;;;25.98;;
13731;SDS011;6937;56.096;12.664;2023-03-01T03:12:31;163.80;;;23.17;;
13731;SDS011;6937;56.096;12.664;2023-03-01T03:14:56;92.22;;;19.90;;
13731;SDS011;6937;56.096;12.664;2023-03-01T03:17:22;99.07;;;19.38;;
13731;SDS011;6937;56.096;12.664;2023-03-01T03:19:47;188.02;;;29.17;;
13731;SDS011;6937;56.096;12.664;2023-03-01T03:22:13;335.45;;;40.10;;
13731;SDS011;6937;56.096;12.664;2023-03-01T03:24:39;160.43;;;35.63;;
13731;SDS011;6937;56.096;12.664;2023-03-01T03:27:05;341.65;;;42.75;;
13731;SDS011;6937;56.096;12.664;2023-03-01T03:29:31;559.72;;;41.25;;
13731;SDS011;6937;56.096;12.664;2023-03-01T03:31:56;401.88;;;34.33;;
13731;SDS011;6937;56.096;12.664;2023-03-01T03:34:22;259.38;;;28.38;;
13731;SDS011;6937;56.096;12.664;2023-03-01T03:36:48;296.67;;;24.58;;
13731;SDS011;6937;56.096;12.664;2023-03-01T03:39:13;87.55;;;14.48;;
13731;SDS011;6937;56.096;12.664;2023-03-01T03:41:38;179.37;;;16.67;;
13731;SDS011;6937;56.096;12.664;2023-03-01T03:44:04;244.03;;;24.90;;
13731;SDS011;6937;56.096;12.664;2023-03-01T03:46:29;205.05;;;16.42;;
13731;SDS011;6937;56.096;12.664;2023-03-01T03:48:55;173.25;;;16.02;;
13731;SDS011;6937;56.096;12.664;2023-03-01T03:51:20;51.45;;;9.85;;
13731;SDS011;6937;56.096;12.664;2023-03-01T03:53:47;121.35;;;11.90;;
13731;SDS011;6937;56.096;12.664;2023-03-01T03:56:13;138.90;;;11.80;;
13731;SDS011;6937;56.096;12.664;2023-03-01T03:58:38;193.93;;;14.05;;
13731;SDS011;6937;56.096;12.664;2023-03-01T04:01:04;91.88;;;10.15;;
13731;SDS011;6937;56.096;12.664;2023-03-01T04:03:30;101.97;;;9.25;;
13731;SDS011;6937;56.096;12.664;2023-03-01T04:05:57;87.13;;;9.07;;
13731;SDS011;6937;56.096;12.664;2023-03-01T04:08:24;49.70;;;7.50;;
13731;SDS011;6937;56.096;12.664;2023-03-01T04:10:51;239.55;;;14.90;;
13731;SDS011;6937;56.096;12.664;2023-03-01T04:13:19;67.72;;;7.90;;
13731;SDS011;6937;56.096;12.664;2023-03-01T04:15:46;234.35;;;14.55;;
13731;SDS011;6937;56.096;12.664;2023-03-01T04:18:14;178.85;;;13.30;;
13731;SDS011;6937;56.096;12.664;2023-03-01T04:20:41;115.88;;;11.30;;
13731;SDS011;6937;56.096;12.664;2023-03-01T04:23:08;76.15;;;10.60;;
13731;SDS011;6937;56.096;12.664;2023-03-01T04:25:39;134.25;;;11.35;;
13731;SDS011;6937;56.096;12.664;2023-03-01T04:28:07;336.88;;;21.40;;
13731;SDS011;6937;56.096;12.664;2023-03-01T04:30:33;119.65;;;10.00;;
13731;SDS011;6937;56.096;12.664;2023-03-01T04:33:10;215.77;;;16.35;;
13731;SDS011;6937;56.096;12.664;2023-03-01T04:35:36;186.93;;;13.03;;
13731;SDS011;6937;56.096;12.664;2023-03-01T04:38:03;172.95;;;13.25;;
13731;SDS011;6937;56.096;12.664;2023-03-01T04:40:29;160.10;;;12.43;;
13731;SDS011;6937;56.096;12.664;2023-03-01T04:42:54;75.97;;;7.87;;
13731;SDS011;6937;56.096;12.664;2023-03-01T04:45:20;113.40;;;9.03;;
13731;SDS011;6937;56.096;12.664;2023-03-01T04:47:46;181.93;;;12.10;;
13731;SDS011;6937;56.096;12.664;2023-03-01T04:50:14;165.20;;;10.82;;
13731;SDS011;6937;56.096;12.664;2023-03-01T04:52:42;16.83;;;6.05;;
13731;SDS011;6937;56.096;12.664;2023-03-01T04:55:09;130.98;;;9.45;;
13731;SDS011;6937;56.096;12.664;2023-03-01T04:57:35;140.20;;;12.18;;
13731;SDS011;6937;56.096;12.664;2023-03-01T05:00:01;40.63;;;7.47;;
13731;SDS011;6937;56.096;12.664;2023-03-01T05:02:28;223.30;;;13.32;;
13731;SDS011;6937;56.096;12.664;2023-03-01T05:04:54;37.72;;;6.65;;
13731;SDS011;6937;56.096;12.664;2023-03-01T05:07:22;21.85;;;6.18;;
13731;SDS011;6937;56.096;12.664;2023-03-01T05:09:49;160.40;;;13.07;;
13731;SDS011;6937;56.096;12.664;2023-03-01T05:12:15;47.03;;;7.40;;
13731;SDS011;6937;56.096;12.664;2023-03-01T05:14:40;38.67;;;7.47;;
13731;SDS011;6937;56.096;12.664;2023-03-01T05:17:06;51.55;;;8.10;;
13731;SDS011;6937;56.096;12.664;2023-03-01T05:19:32;47.88;;;9.35;;
13731;SDS011;6937;56.096;12.664;2023-03-01T05:21:58;134.65;;;12.32;;
13731;SDS011;6937;56.096;12.664;2023-03-01T05:24:29;31.45;;;6.40;;
13731;SDS011;6937;56.096;12.664;2023-03-01T05:26:55;35.72;;;7.00;;
13731;SDS011;6937;56.096;12.664;2023-03-01T05:29:21;18.55;;;5.47;;
13731;SDS011;6937;56.096;12.664;2023-03-01T05:31:55;44.42;;;6.45;;
13731;SDS011;6937;56.096;12.664;2023-03-01T05:34:26;25.58;;;6.35;;
13731;SDS011;6937;56.096;12.664;2023-03-01T05:36:53;19.77;;;5.87;;
13731;SDS011;6937;56.096;12.664;2023-03-01T05:39:23;111.65;;;10.40;;
13731;SDS011;6937;56.096;12.664;2023-03-01T05:41:57;17.10;;;6.47;;
13731;SDS011;6937;56.096;12.664;2023-03-01T05:44:25;48.42;;;6.28;;
13731;SDS011;6937;56.096;12.664;2023-03-01T05:46:51;109.47;;;7.60;;
13731;SDS011;6937;56.096;12.664;2023-03-01T05:49:17;232.57;;;8.80;;
13731;SDS011;6937;56.096;12.664;2023-03-01T05:51:43;106.50;;;5.53;;
13731;SDS011;6937;56.096;12.664;2023-03-01T05:54:12;131.13;;;5.72;;
13731;SDS011;6937;56.096;12.664;2023-03-01T05:56:37;109.50;;;5.47;;
13731;SDS011;6937;56.096;12.664;2023-03-01T05:59:03;213.83;;;7.50;;
13731;SDS011;6937;56.096;12.664;2023-03-01T06:01:33;157.70;;;6.40;;
13731;SDS011;6937;56.096;12.664;2023-03-01T06:03:59;374.45;;;15.00;;
13731;SDS011;6937;56.096;12.664;2023-03-01T06:06:25;99.67;;;4.90;;
13731;SDS011;6937;56.096;12.664;2023-03-01T06:08:51;283.40;;;11.45;;
13731;SDS011;6937;56.096;12.664;2023-03-01T06:11:17;137.20;;;6.93;;
13731;SDS011;6937;56.096;12.664;2023-03-01T06:13:43;205.55;;;8.00;;
13731;SDS011;6937;56.096;12.664;2023-03-01T06:16:09;124.28;;;5.88;;
13731;SDS011;6937;56.096;12.664;2023-03-01T06:18:36;139.68;;;7.32;;
13731;SDS011;6937;56.096;12.664;2023-03-01T06:21:02;107.83;;;5.67;;
13731;SDS011;6937;56.096;12.664;2023-03-01T06:23:28;74.37;;;3.83;;
13731;SDS011;6937;56.096;12.664;2023-03-01T06:25:53;65.70;;;4.10;;
13731;SDS011;6937;56.096;12.664;2023-03-01T06:28:19;131.73;;;6.72;;
13731;SDS011;6937;56.096;12.664;2023-03-01T06:30:44;96.40;;;4.80;;
13731;SDS011;6937;56.096;12.664;2023-03-01T06:33:09;109.28;;;5.82;;
13731;SDS011;6937;56.096;12.664;2023-03-01T06:35:35;154.50;;;6.78;;
13731;SDS011;6937;56.096;12.664;2023-03-01T06:38:02;160.45;;;7.05;;
13731;SDS011;6937;56.096;12.664;2023-03-01T06:40:28;155.73;;;6.90;;
13731;SDS011;6937;56.096;12.664;2023-03-01T06:42:56;105.10;;;6.07;;
13731;SDS011;6937;56.096;12.664;2023-03-01T06:45:22;172.38;;;7.80;;
13731;SDS011;6937;56.096;12.664;2023-03-01T06:47:48;220.90;;;10.23;;
13731;SDS011;6937;56.096;12.664;2023-03-01T06:50:17;165.60;;;7.43;;
13731;SDS011;6937;56.096;12.664;2023-03-01T06:52:43;279.93;;;10.23;;
13731;SDS011;6937;56.096;12.664;2023-03-01T06:55:10;280.60;;;10.60;;
13731;SDS011;6937;56.096;12.664;2023-03-01T06:57:36;207.32;;;8.93;;
13731;SDS011;6937;56.096;12.664;2023-03-01T07:00:02;247.50;;;9.77;;
13731;SDS011;6937;56.096;12.664;2023-03-01T07:02:31;288.80;;;10.20;;
13731;SDS011;6937;56.096;12.664;2023-03-01T07:04:57;267.43;;;10.90;;
13731;SDS011;6937;56.096;12.664;2023-03-01T07:07:22;244.20;;;8.63;;
13731;SDS011;6937;56.096;12.664;2023-03-01T07:09:48;302.75;;;12.32;;
13731;SDS011;6937;56.096;12.664;2023-03-01T07:12:14;154.25;;;5.85;;
13731;SDS011;6937;56.096;12.664;2023-03-01T07:14:40;364.52;;;13.90;;
13731;SDS011;6937;56.096;12.664;2023-03-01T07:17:05;329.27;;;13.02;;
13731;SDS011;6937;56.096;12.664;2023-03-01T07:19:31;283.58;;;10.52;;
13731;SDS011;6937;56.096;12.664;2023-03-01T07:21:57;245.00;;;8.50;;
13731;SDS011;6937;56.096;12.664;2023-03-01T07:24:22;344.70;;;13.03;;
13731;SDS011;6937;56.096;12.664;2023-03-01T07:26:48;299.02;;;11.60;;
13731;SDS011;6937;56.096;12.664;2023-03-01T07:29:15;210.43;;;8.17;;
13731;SDS011;6937;56.096;12.664;2023-03-01T07:31:41;303.33;;;11.27;;
13731;SDS011;6937;56.096;12.664;2023-03-01T07:34:06;283.88;;;10.77;;
13731;SDS011;6937;56.096;12.664;2023-03-01T07:36:31;329.93;;;12.70;;
13731;SDS011;6937;56.096;12.664;2023-03-01T07:38:57;312.77;;;12.55;;
13731;SDS011;6937;56.096;12.664;2023-03-01T07:41:22;327.55;;;11.73;;
13731;SDS011;6937;56.096;12.664;2023-03-01T07:43:48;344.98;;;13.93;;
13731;SDS011;6937;56.096;12.664;2023-03-01T07:46:13;373.77;;;15.52;;
13731;SDS011;6937;56.096;12.664;2023-03-01T07:48:38;243.38;;;10.30;;
13731;SDS011;6937;56.096;12.664;2023-03-01T07:51:05;324.33;;;15.13;;
13731;SDS011;6937;56.096;12.664;2023-03-01T07:53:31;215.43;;;8.93;;
13731;SDS011;6937;56.096;12.664;2023-03-01T07:56:11;373.60;;;16.40;;
13731;SDS011;6937;56.096;12.664;2023-03-01T07:58:39;340.70;;;15.50;;
13731;SDS011;6937;56.096;12.664;2023-03-01T08:01:07;292.63;;;12.90;;
13731;SDS011;6937;56.096;12.664;2023-03-01T08:03:35;195.93;;;9.07;;
13731;SDS011;6937;56.096;12.664;2023-03-01T08:06:02;356.92;;;17.27;;
13731;SDS011;6937;56.096;12.664;2023-03-01T08:08:28;314.80;;;14.43;;
13731;SDS011;6937;56.096;12.664;2023-03-01T08:10:57;209.73;;;11.70;;
13731;SDS011;6937;56.096;12.664;2023-03-01T08:13:24;246.30;;;11.35;;
13731;SDS011;6937;56.096;12.664;2023-03-01T08:15:50;289.35;;;16.67;;
13731;SDS011;6937;56.096;12.664;2023-03-01T08:18:16;317.95;;;17.23;;
13731;SDS011;6937;56.096;12.664;2023-03-01T08:20:42;475.53;;;26.87;;
13731;SDS011;6937;56.096;12.664;2023-03-01T08:23:08;241.37;;;14.80;;
13731;SDS011;6937;56.096;12.664;2023-03-01T08:25:33;352.97;;;18.47;;
13731;SDS011;6937;56.096;12.664;2023-03-01T08:27:59;311.30;;;19.53;;
13731;SDS011;6937;56.096;12.664;2023-03-01T08:30:24;427.60;;;25.50;;
13731;SDS011;6937;56.096;12.664;2023-03-01T08:32:50;234.47;;;12.90;;
13731;SDS011;6937;56.096;12.664;2023-03-01T08:35:16;243.20;;;13.27;;
13731;SDS011;6937;56.096;12.664;2023-03-01T08:37:41;206.93;;;11.75;;
13731;SDS011;6937;56.096;12.664;2023-03-01T08:40:07;224.10;;;13.70;;
13731;SDS011;6937;56.096;12.664;2023-03-01T08:42:35;164.23;;;10.00;;
13731;SDS011;6937;56.096;12.664;2023-03-01T08:45:01;483.98;;;30.83;;
13731;SDS011;6937;56.096;12.664;2023-03-01T08:47:27;211.07;;;14.20;;
13731;SDS011;6937;56.096;12.664;2023-03-01T08:49:53;104.55;;;8.65;;
13731;SDS011;6937;56.096;12.664;2023-03-01T08:52:21;54.28;;;5.13;;
13731;SDS011;6937;56.096;12.664;2023-03-01T08:54:47;157.23;;;10.13;;
13731;SDS011;6937;56.096;12.664;2023-03-01T08:57:13;118.03;;;8.75;;
13731;SDS011;6937;56.096;12.664;2023-03-01T08:59:40;190.68;;;11.98;;
13731;SDS011;6937;56.096;12.664;2023-03-01T09:02:10;196.85;;;11.35;;
13731;SDS011;6937;56.096;12.664;2023-03-01T09:04:37;301.15;;;21.08;;
13731;SDS011;6937;56.096;12.664;2023-03-01T09:07:03;265.03;;;14.37;;
13731;SDS011;6937;56.096;12.664;2023-03-01T09:09:28;155.27;;;10.80;;
13731;SDS011;6937;56.096;12.664;2023-03-01T09:11:53;168.07;;;11.20;;
13731;SDS011;6937;56.096;12.664;2023-03-01T09:14:19;113.80;;;7.90;;
13731;SDS011;6937;56.096;12.664;2023-03-01T09:16:44;234.83;;;14.97;;
13731;SDS011;6937;56.096;12.664;2023-03-01T09:19:10;202.73;;;13.05;;
13731;SDS011;6937;56.096;12.664;2023-03-01T09:21:36;181.73;;;11.52;;
13731;SDS011;6937;56.096;12.664;2023-03-01T09:24:02;92.78;;;8.20;;
13731;SDS011;6937;56.096;12.664;2023-03-01T09:26:28;146.52;;;8.95;;
13731;SDS011;6937;56.096;12.664;2023-03-01T09:28:54;156.53;;;10.20;;
13731;SDS011;6937;56.096;12.664;2023-03-01T09:31:21;74.80;;;7.68;;
13731;SDS011;6937;56.096;12.664;2023-03-01T09:33:48;66.23;;;7.63;;
13731;SDS011;6937;56.096;12.664;2023-03-01T09:36:16;151.13;;;9.98;;
13731;SDS011;6937;56.096;12.664;2023-03-01T09:38:47;82.80;;;8.60;;
13731;SDS011;6937;56.096;12.664;2023-03-01T09:43:49;214.85;;;16.27;;
13731;SDS011;6937;56.096;12.664;2023-03-01T09:46:21;318.37;;;19.57;;
13731;SDS011;6937;56.096;12.664;2023-03-01T09:48:49;127.60;;;10.50;;
13731;SDS011;6937;56.096;12.664;2023-03-01T09:51:25;209.50;;;13.68;;
13731;SDS011;6937;56.096;12.664;2023-03-01T09:53:53;250.65;;;16.35;;
13731;SDS011;6937;56.096;12.664;2023-03-01T09:56:22;216.52;;;17.30;;
13731;SDS011;6937;56.096;12.664;2023-03-01T10:01:38;46.75;;;7.97;;
13731;SDS011;6937;56.096;12.664;2023-03-01T10:04:30;23.20;;;5.77;;
13731;SDS011;6937;56.096;12.664;2023-03-01T10:09:35;33.05;;;5.97;;
13731;SDS011;6937;56.096;12.664;2023-03-01T10:12:04;73.05;;;8.50;;
13731;SDS011;6937;56.096;12.664;2023-03-01T10:14:36;60.10;;;7.35;;
13731;SDS011;6937;56.096;12.664;2023-03-01T10:17:12;26.33;;;6.47;;
13731;SDS011;6937;56.096;12.664;2023-03-01T10:20:14;10.48;;;5.65;;
13731;SDS011;6937;56.096;12.664;2023-03-01T10:22:42;11.30;;;5.97;;
13731;SDS011;6937;56.096;12.664;2023-03-01T10:25:12;23.05;;;6.07;;
13731;SDS011;6937;56.096;12.664;2023-03-01T10:27:46;8.10;;;5.07;;
13731;SDS011;6937;56.096;12.664;2023-03-01T10:30:19;21.55;;;5.75;;
13731;SDS011;6937;56.096;12.664;2023-03-01T10:32:45;20.05;;;5.20;;
13731;SDS011;6937;56.096;12.664;2023-03-01T10:35:35;11.00;;;5.47;;
13731;SDS011;6937;56.096;12.664;2023-03-01T10:38:05;13.38;;;4.18;;
13731;SDS011;6937;56.096;12.664;2023-03-01T10:40:32;11.35;;;4.07;;
13731;SDS011;6937;56.096;12.664;2023-03-01T10:43:03;7.78;;;3.83;;
13731;SDS011;6937;56.096;12.664;2023-03-01T10:48:05;31.55;;;5.95;;
13731;SDS011;6937;56.096;12.664;2023-03-01T10:50:44;32.95;;;5.30;;
13731;SDS011;6937;56.096;12.664;2023-03-01T10:55:56;19.73;;;5.22;;
13731;SDS011;6937;56.096;12.664;2023-03-01T10:58:24;18.35;;;5.25;;
13731;SDS011;6937;56.096;12.664;2023-03-01T11:00:56;8.25;;;4.63;;
13731;SDS011;6937;56.096;12.664;2023-03-01T11:06:34;7.07;;;3.67;;
13731;SDS011;6937;56.096;12.664;2023-03-01T11:11:18;3.25;;;2.78;;
13731;SDS011;6937;56.096;12.664;2023-03-01T11:13:50;9.57;;;3.43;;
13731;SDS011;6937;56.096;12.664;2023-03-01T11:16:23;19.20;;;3.75;;
13731;SDS011;6937;56.096;12.664;2023-03-01T11:21:34;5.00;;;3.08;;
13731;SDS011;6937;56.096;12.664;2023-03-01T11:24:04;11.57;;;3.60;;
13731;SDS011;6937;56.096;12.664;2023-03-01T11:26:36;7.68;;;2.90;;
13731;SDS011;6937;56.096;12.664;2023-03-01T11:29:30;5.93;;;3.97;;
13731;SDS011;6937;56.096;12.664;2023-03-01T11:32:01;3.05;;;2.75;;
13731;SDS011;6937;56.096;12.664;2023-03-01T11:34:42;4.78;;;2.67;;
13731;SDS011;6937;56.096;12.664;2023-03-01T11:37:19;4.07;;;3.37;;
13731;SDS011;6937;56.096;12.664;2023-03-01T11:42:47;2.78;;;2.53;;
13731;SDS011;6937;56.096;12.664;2023-03-01T11:45:14;3.13;;;2.83;;
13731;SDS011;6937;56.096;12.664;2023-03-01T12:12:34;3.58;;;2.70;;
13731;SDS011;6937;56.096;12.664;2023-03-01T12:15:23;3.47;;;2.63;;
13731;SDS011;6937;56.096;12.664;2023-03-01T12:21:17;3.90;;;2.80;;
13731;SDS011;6937;56.096;12.664;2023-03-01T12:30:01;2.70;;;2.50;;
13731;SDS011;6937;56.096;12.664;2023-03-01T12:32:12;2.53;;;2.17;;
13731;SDS011;6937;56.096;12.664;2023-03-01T12:35:28;1.98;;;1.85;;
13731;SDS011;6937;56.096;12.664;2023-03-01T12:40:29;2.50;;;2.30;;
13731;SDS011;6937;56.096;12.664;2023-03-01T12:51:31;2.22;;;1.85;;
13731;SDS011;6937;56.096;12.664;2023-03-01T12:53:59;1.98;;;1.80;;
13731;SDS011;6937;56.096;12.664;2023-03-01T12:56:32;2.30;;;1.95;;
13731;SDS011;6937;56.096;12.664;2023-03-01T13:01:48;9.70;;;2.92;;
13731;SDS011;6937;56.096;12.664;2023-03-01T13:17:48;3.10;;;1.80;;
13731;SDS011;6937;56.096;12.664;2023-03-01T13:20:26;8.77;;;1.90;;
13731;SDS011;6937;56.096;12.664;2023-03-01T13:23:03;2.08;;;1.80;;
13731;SDS011;6937;56.096;12.664;2023-03-01T13:25:33;8.88;;;2.03;;
13731;SDS011;6937;56.096;12.664;2023-03-01T13:31:05;5.00;;;1.60;;
13731;SDS011;6937;56.096;12.664;2023-03-01T13:36:01;1.55;;;1.45;;
13731;SDS011;6937;56.096;12.664;2023-03-01T13:41:14;1.65;;;1.40;;
13731;SDS011;6937;56.096;12.664;2023-03-01T13:43:41;1.83;;;1.35;;
13731;SDS011;6937;56.096;12.664;2023-03-01T13:46:19;1.40;;;1.30;;
13731;SDS011;6937;56.096;12.664;2023-03-01T13:48:48;0.95;;;0.95;;
13731;SDS011;6937;56.096;12.664;2023-03-01T13:51:16;0.98;;;0.98;;
13731;SDS011;6937;56.096;12.664;2023-03-01T13:53:48;1.33;;;1.10;;
13731;SDS011;6937;56.096;12.664;2023-03-01T13:56:33;0.98;;;0.95;;
13731;SDS011;6937;56.096;12.664;2023-03-01T13:59:02;1.05;;;1.00;;
13731;SDS011;6937;56.096;12.664;2023-03-01T14:01:33;1.00;;;0.90;;
13731;SDS011;6937;56.096;12.664;2023-03-01T14:04:00;0.85;;;0.75;;
13731;SDS011;6937;56.096;12.664;2023-03-01T14:06:32;0.77;;;0.70;;
13731;SDS011;6937;56.096;12.664;2023-03-01T14:09:22;0.90;;;0.85;;
13731;SDS011;6937;56.096;12.664;2023-03-01T14:12:04;0.93;;;0.88;;
13731;SDS011;6937;56.096;12.664;2023-03-01T14:14:44;1.10;;;1.00;;
13731;SDS011;6937;56.096;12.664;2023-03-01T14:19:58;0.70;;;0.70;;
13731;SDS011;6937;56.096;12.664;2023-03-01T14:22:30;1.08;;;0.80;;
13731;SDS011;6937;56.096;12.664;2023-03-01T14:25:03;1.10;;;1.00;;
13731;SDS011;6937;56.096;12.664;2023-03-01T14:27:40;1.65;;;0.95;;
13731;SDS011;6937;56.096;12.664;2023-03-01T14:30:19;0.80;;;0.80;;
13731;SDS011;6937;56.096;12.664;2023-03-01T14:32:55;0.80;;;0.80;;
13731;SDS011;6937;56.096;12.664;2023-03-01T14:35:26;0.98;;;0.98;;
13731;SDS011;6937;56.096;12.664;2023-03-01T14:37:54;0.95;;;0.90;;
13731;SDS011;6937;56.096;12.664;2023-03-01T14:40:24;1.10;;;0.98;;
13731;SDS011;6937;56.096;12.664;2023-03-01T14:42:58;1.30;;;1.20;;
13731;SDS011;6937;56.096;12.664;2023-03-01T14:45:27;1.20;;;1.10;;
13731;SDS011;6937;56.096;12.664;2023-03-01T14:47:54;1.02;;;1.00;;
13731;SDS011;6937;56.096;12.664;2023-03-01T14:50:27;1.27;;;1.15;;
13731;SDS011;6937;56.096;12.664;2023-03-01T14:52:55;1.30;;;1.13;;
13731;SDS011;6937;56.096;12.664;2023-03-01T14:55:41;1.42;;;1.33;;
13731;SDS011;6937;56.096;12.664;2023-03-01T14:58:11;1.48;;;1.38;;
13731;SDS011;6937;56.096;12.664;2023-03-01T15:00:38;1.65;;;1.55;;
13731;SDS011;6937;56.096;12.664;2023-03-01T15:03:14;1.60;;;1.50;;
13731;SDS011;6937;56.096;12.664;2023-03-01T15:05:48;1.52;;;1.42;;
13731;SDS011;6937;56.096;12.664;2023-03-01T15:08:16;1.40;;;1.30;;
13731;SDS011;6937;56.096;12.664;2023-03-01T15:10:58;1.63;;;1.45;;
13731;SDS011;6937;56.096;12.664;2023-03-01T15:13:42;1.48;;;1.38;;
13731;SDS011;6937;56.096;12.664;2023-03-01T15:18:36;1.20;;;1.02;;
13731;SDS011;6937;56.096;12.664;2023-03-01T15:21:06;1.08;;;0.98;;
13731;SDS011;6937;56.096;12.664;2023-03-01T15:23:34;1.15;;;1.00;;
13731;SDS011;6937;56.096;12.664;2023-03-01T15:26:02;1.35;;;1.25;;
13731;SDS011;6937;56.096;12.664;2023-03-01T15:28:33;1.88;;;1.73;;
13731;SDS011;6937;56.096;12.664;2023-03-01T15:31:01;2.17;;;1.98;;
13731;SDS011;6937;56.096;12.664;2023-03-01T15:33:47;1.92;;;1.83;;
13731;SDS011;6937;56.096;12.664;2023-03-01T15:38:57;3.38;;;2.83;;
13731;SDS011;6937;56.096;12.664;2023-03-01T15:41:29;3.50;;;3.20;;
13731;SDS011;6937;56.096;12.664;2023-03-01T15:43:57;3.42;;;3.13;;
13731;SDS011;6937;56.096;12.664;2023-03-01T15:46:31;3.72;;;3.42;;
13731;SDS011;6937;56.096;12.664;2023-03-01T15:49:03;4.63;;;4.22;;
13731;SDS011;6937;56.096;12.664;2023-03-01T15:51:42;4.68;;;4.28;;
13731;SDS011;6937;56.096;12.664;2023-03-01T15:54:18;4.65;;;4.25;;
13731;SDS011;6937;56.096;12.664;2023-03-01T15:56:46;4.32;;;3.92;;
13731;SDS011;6937;56.096;12.664;2023-03-01T15:59:11;4.28;;;3.97;;
13731;SDS011;6937;56.096;12.664;2023-03-01T16:01:39;4.75;;;4.35;;
13731;SDS011;6937;56.096;12.664;2023-03-01T16:04:05;6.03;;;5.40;;
13731;SDS011;6937;56.096;12.664;2023-03-01T16:06:30;7.40;;;5.72;;
13731;SDS011;6937;56.096;12.664;2023-03-01T16:08:56;9.50;;;6.97;;
13731;SDS011;6937;56.096;12.664;2023-03-01T16:11:22;16.63;;;7.18;;
13731;SDS011;6937;56.096;12.664;2023-03-01T16:13:47;36.30;;;7.75;;
13731;SDS011;6937;56.096;12.664;2023-03-01T16:16:14;29.45;;;7.65;;
13731;SDS011;6937;56.096;12.664;2023-03-01T16:18:44;30.63;;;8.10;;
13731;SDS011;6937;56.096;12.664;2023-03-01T16:21:15;41.47;;;9.15;;
13731;SDS011;6937;56.096;12.664;2023-03-01T16:23:44;29.48;;;9.10;;
13731;SDS011;6937;56.096;12.664;2023-03-01T16:26:11;33.75;;;8.63;;
13731;SDS011;6937;56.096;12.664;2023-03-01T16:28:38;70.25;;;9.18;;
13731;SDS011;6937;56.096;12.664;2023-03-01T16:31:04;116.60;;;12.02;;